createdAt,value
2022-10-03T03:01:52.319Z,12.48
2022-10-03T03:05:16.199Z,12.75
2022-10-03T03:08:01.796Z,12.63
2022-10-03T03:10:58.578Z,12.95
2022-10-03T03:13:31.650Z,13.57
2022-10-03T03:16:10.829Z,11.63
2022-10-03T03:19:01.222Z,12.15
2022-10-03T03:21:51.579Z,12.43
2022-10-03T03:24:18.712Z,12.50
2022-10-03T03:27:16.737Z,11.90
2022-10-03T03:30:08.764Z,12.23
2022-10-03T03:33:01.271Z,12.13
2022-10-03T03:35:53.239Z,12.00
2022-10-03T03:38:57.597Z,15.25
2022-10-03T03:41:45.670Z,14.27
2022-10-03T03:44:52.537Z,14.52
2022-10-03T03:47:49.364Z,14.45
2022-10-03T03:50:36.539Z,14.85
2022-10-03T03:53:12.402Z,15.38
2022-10-03T03:56:00.587Z,15.05
2022-10-03T03:58:39.871Z,15.40
2022-10-03T04:01:25.278Z,15.65
2022-10-03T04:04:32.516Z,16.27
2022-10-03T04:07:27.249Z,15.38
2022-10-03T04:10:26.883Z,15.93
2022-10-03T04:13:01.736Z,15.95
2022-10-03T04:15:49.884Z,16.80
2022-10-03T04:18:53.495Z,16.63
2022-10-03T04:21:41.922Z,16.75
2022-10-03T04:24:32.186Z,15.88
2022-10-03T04:27:23.174Z,15.85
2022-10-03T04:30:23.784Z,15.30
2022-10-03T04:33:11.824Z,17.05
2022-10-03T04:36:06.656Z,15.80
2022-10-03T04:39:08.821Z,16.70
2022-10-03T04:41:55.404Z,18.08
2022-10-03T04:44:40.387Z,15.57
2022-10-03T04:47:17.713Z,14.85
2022-10-03T04:50:13.578Z,16.17
2022-10-03T04:52:57.937Z,16.45
2022-10-03T04:55:47.566Z,15.60
2022-10-03T04:58:35.990Z,17.80
2022-10-03T05:01:22.115Z,19.25
2022-10-03T05:04:10.582Z,19.02
2022-10-03T05:07:19.369Z,17.33
2022-10-03T05:10:17.029Z,15.77
2022-10-03T05:13:12.869Z,14.57
2022-10-03T05:15:50.283Z,14.25
2022-10-03T05:18:23.387Z,16.35
2022-10-03T05:21:00.690Z,15.75
2022-10-03T05:23:52.333Z,15.95
2022-10-03T05:26:49.697Z,15.60
2022-10-03T05:29:40.965Z,18.17
2022-10-03T05:32:27.183Z,17.35
2022-10-03T05:35:33.017Z,17.40
2022-10-03T05:38:09.434Z,14.88
2022-10-03T05:40:40.508Z,15.77
2022-10-03T05:43:28.278Z,15.95
2022-10-03T05:46:10.789Z,17.30
2022-10-03T05:48:37.977Z,14.80
2022-10-03T05:51:28.755Z,14.43
2022-10-03T05:54:01.913Z,14.02
2022-10-03T05:56:47.720Z,16.23
2022-10-03T06:00:00.047Z,17.73
2022-10-03T06:02:53.868Z,16.58
2022-10-03T06:05:31.854Z,16.83
2022-10-03T06:08:23.535Z,16.20
2022-10-03T06:10:53.708Z,15.57
2022-10-03T06:13:59.067Z,16.70
2022-10-03T06:16:44.411Z,15.32
2022-10-03T06:19:26.764Z,15.73
2022-10-03T06:22:31.201Z,17.67
2022-10-03T06:25:20.874Z,16.70
2022-10-03T06:28:12.629Z,18.67
2022-10-03T06:30:51.963Z,18.45
2022-10-03T06:33:36.988Z,15.23
2022-10-03T06:36:32.549Z,17.60
2022-10-03T06:39:27.150Z,18.17
2022-10-03T06:42:09.150Z,17.67
2022-10-03T06:45:13.673Z,17.30
2022-10-03T06:47:59.680Z,16.52
2022-10-03T06:51:05.106Z,18.38
2022-10-03T06:53:35.365Z,17.73
2022-10-03T06:56:11.796Z,20.58
2022-10-03T06:59:05.457Z,18.10
2022-10-03T07:02:02.015Z,19.60
2022-10-03T07:05:08.014Z,19.00
2022-10-03T07:07:38.899Z,17.65
2022-10-03T07:10:24.830Z,19.25
2022-10-03T07:13:10.506Z,19.48
2022-10-03T07:18:53.309Z,14.20
2022-10-03T07:21:57.116Z,16.17
2022-10-03T07:24:55.626Z,17.73
2022-10-03T07:27:35.573Z,17.50
2022-10-03T07:30:11.333Z,18.23
2022-10-03T07:33:09.411Z,18.30
2022-10-03T07:36:26.123Z,17.52
2022-10-03T07:39:33.944Z,14.95
2022-10-03T07:42:20.747Z,14.73
2022-10-03T07:45:06.451Z,14.68
2022-10-03T07:48:05.013Z,14.73
2022-10-03T07:50:57.509Z,12.82
2022-10-03T07:53:46.075Z,13.68
2022-10-03T07:56:32.498Z,13.10
2022-10-03T07:59:03.767Z,13.15
2022-10-03T08:02:13.257Z,13.50
2022-10-03T08:05:07.413Z,14.35
2022-10-03T08:08:03.465Z,15.25
2022-10-03T08:10:37.302Z,15.98
2022-10-03T08:13:26.786Z,15.50
2022-10-03T08:16:31.654Z,15.45
2022-10-03T08:19:23.486Z,14.73
2022-10-03T08:22:14.804Z,15.38
2022-10-03T08:25:02.844Z,13.48
2022-10-03T08:27:48.271Z,13.10
2022-10-03T08:30:18.336Z,11.68
2022-10-03T08:32:48.973Z,10.07
2022-10-03T08:35:27.824Z,9.52
2022-10-03T08:38:15.204Z,8.85
2022-10-03T08:41:41.170Z,9.77
2022-10-03T08:44:35.724Z,10.40
2022-10-03T08:47:36.458Z,10.65
2022-10-03T08:50:34.181Z,10.02
2022-10-03T08:53:37.073Z,9.52
2022-10-03T08:56:32.311Z,8.55
2022-10-03T08:59:11.240Z,10.80
2022-10-03T09:01:41.520Z,10.50
2022-10-03T09:04:33.052Z,10.20
2022-10-03T09:07:20.904Z,9.85
2022-10-03T09:10:25.687Z,9.93
2022-10-03T09:13:23.837Z,9.23
2022-10-03T09:16:20.877Z,10.85
2022-10-03T09:19:22.261Z,11.05
2022-10-03T09:22:09.545Z,11.15
2022-10-03T09:24:36.638Z,11.65
2022-10-03T09:27:15.482Z,13.02
2022-10-03T09:30:26.933Z,10.77
2022-10-03T09:33:23.037Z,10.00
2022-10-03T09:36:26.806Z,8.90
2022-10-03T09:39:06.633Z,8.38
2022-10-03T09:41:44.219Z,9.05
2022-10-03T09:44:39.207Z,9.38
2022-10-03T09:47:44.710Z,9.77
2022-10-03T09:50:19.435Z,8.88
2022-10-03T09:53:05.105Z,9.52
2022-10-03T09:55:43.899Z,9.68
2022-10-03T09:58:55.995Z,10.35
2022-10-03T10:01:52.438Z,8.70
2022-10-03T10:04:55.939Z,8.48
2022-10-03T10:07:38.594Z,8.60
2022-10-03T10:10:35.576Z,7.57
2022-10-03T10:13:18.093Z,8.40
2022-10-03T10:16:09.831Z,8.07
2022-10-03T10:19:04.917Z,7.00
2022-10-03T10:21:47.365Z,6.38
2022-10-03T10:24:42.125Z,7.32
2022-10-03T10:27:34.009Z,7.72
2022-10-03T10:30:14.206Z,6.47
2022-10-03T10:33:02.131Z,7.75
2022-10-03T10:35:48.028Z,6.47
2022-10-03T10:38:27.128Z,5.78
2022-10-03T10:41:31.107Z,6.18
2022-10-03T10:44:36.657Z,5.05
2022-10-03T10:47:20.678Z,5.90
2022-10-03T10:50:11.104Z,6.20
2022-10-03T10:53:08.172Z,5.18
2022-10-03T10:56:19.585Z,5.40
2022-10-03T10:59:24.274Z,4.05
2022-10-03T11:02:09.209Z,4.07
2022-10-03T11:05:13.718Z,4.32
2022-10-03T11:07:54.168Z,4.15
2022-10-03T11:10:55.820Z,5.25
2022-10-03T11:13:45.973Z,4.75
2022-10-03T11:16:21.170Z,3.80
2022-10-03T11:18:54.494Z,4.25
2022-10-03T11:21:52.165Z,3.75
2022-10-03T11:24:42.373Z,4.15
2022-10-03T11:27:29.398Z,4.15
2022-10-03T11:30:24.259Z,4.47
2022-10-03T11:33:15.003Z,4.47
2022-10-03T11:36:11.170Z,4.93
2022-10-03T11:39:19.676Z,4.25
2022-10-03T11:41:56.071Z,5.13
2022-10-03T11:44:31.581Z,4.80
2022-10-03T11:47:26.178Z,3.92
2022-10-03T11:50:41.759Z,4.55
2022-10-03T11:53:26.937Z,4.53
2022-10-03T11:56:03.323Z,5.43
2022-10-03T11:58:39.868Z,4.60
2022-10-03T12:01:30.157Z,4.30
2022-10-03T12:03:57.284Z,4.30
2022-10-03T12:07:17.505Z,4.70
2022-10-03T12:10:09.556Z,4.28
2022-10-03T12:12:53.045Z,4.50
2022-10-03T12:15:38.754Z,5.07
2022-10-03T12:18:21.387Z,4.80
2022-10-03T12:21:22.882Z,5.30
2022-10-03T12:24:23.810Z,6.10
2022-10-03T12:27:00.621Z,4.80
2022-10-03T12:29:32.502Z,4.22
2022-10-03T12:32:05.891Z,5.47
2022-10-03T12:34:44.027Z,4.15
2022-10-03T12:38:02.459Z,4.13
2022-10-03T12:40:40.361Z,4.88
2022-10-03T12:43:38.004Z,4.40
2022-10-03T12:46:16.467Z,4.95
2022-10-03T12:49:07.969Z,4.70
2022-10-03T12:51:47.553Z,4.53
2022-10-03T12:54:38.762Z,3.58
2022-10-03T12:57:39.678Z,4.70
2022-10-03T13:00:15.946Z,4.50
2022-10-03T13:03:03.631Z,4.53
2022-10-03T13:05:43.625Z,4.82
2022-10-03T13:08:29.254Z,4.28
2022-10-03T13:11:14.088Z,4.38
2022-10-03T13:14:13.567Z,6.85
2022-10-03T13:17:05.676Z,5.28
2022-10-03T13:20:06.387Z,4.57
2022-10-03T13:23:03.415Z,4.20
2022-10-03T13:25:52.633Z,4.00
2022-10-03T13:28:31.381Z,3.53
2022-10-03T13:31:10.417Z,5.43
2022-10-03T13:33:45.165Z,6.72
2022-10-03T13:36:26.290Z,4.78
2022-10-03T13:39:19.314Z,4.90
2022-10-03T13:42:10.394Z,4.57
2022-10-03T13:44:57.395Z,5.07
2022-10-03T13:47:48.469Z,3.92
2022-10-03T13:50:45.721Z,4.53
2022-10-03T13:53:53.310Z,4.60
2022-10-03T13:56:38.006Z,4.75
2022-10-03T13:59:49.244Z,4.78
2022-10-03T14:02:40.317Z,5.28
2022-10-03T14:05:47.179Z,5.35
2022-10-03T14:08:48.467Z,4.78
2022-10-03T14:11:42.928Z,4.50
2022-10-03T14:14:38.307Z,4.70
2022-10-03T14:17:14.366Z,4.72
2022-10-03T14:20:07.782Z,4.90
2022-10-03T14:22:50.757Z,4.45
2022-10-03T14:25:36.623Z,4.30
2022-10-03T14:28:18.935Z,4.63
2022-10-03T14:31:07.051Z,5.10
2022-10-03T14:33:49.608Z,7.38
2022-10-03T14:36:46.934Z,4.20
2022-10-03T14:39:25.839Z,4.80
2022-10-03T14:41:55.940Z,4.22
2022-10-03T14:44:29.778Z,5.03
2022-10-03T14:47:07.446Z,4.88
2022-10-03T14:49:54.883Z,5.10
2022-10-03T14:52:40.189Z,4.95
2022-10-03T14:55:20.254Z,4.35
2022-10-03T14:58:09.973Z,4.53
2022-10-03T15:00:48.720Z,5.63
2022-10-03T15:03:23.666Z,5.78
2022-10-03T15:05:56.426Z,5.13
2022-10-03T15:08:27.185Z,5.70
2022-10-03T15:10:56.108Z,5.78
2022-10-03T15:13:26.629Z,5.90
2022-10-03T15:15:56.523Z,6.20
2022-10-03T15:18:25.187Z,5.10
2022-10-03T15:20:55.083Z,4.72
2022-10-03T15:23:27.429Z,7.53
2022-10-03T15:25:56.466Z,4.63
2022-10-03T15:28:30.310Z,13.73
2022-10-03T15:31:15.613Z,4.90
2022-10-03T15:33:46.218Z,6.88
2022-10-03T15:36:25.555Z,5.25
2022-10-03T15:38:56.366Z,4.95
2022-10-03T15:41:36.981Z,5.85
2022-10-03T15:44:39.575Z,5.38
2022-10-03T15:47:40.056Z,6.10
2022-10-03T15:50:23.225Z,5.10
2022-10-03T15:53:12.490Z,5.80
2022-10-03T15:55:51.996Z,5.85
2022-10-03T15:58:27.548Z,5.93
2022-10-03T16:01:06.371Z,4.90
2022-10-03T16:03:44.648Z,7.80
2022-10-03T16:06:22.209Z,6.00
2022-10-03T16:09:18.404Z,5.53
2022-10-03T16:12:10.322Z,5.75
2022-10-03T16:14:52.725Z,5.80
2022-10-03T16:17:21.769Z,5.35
2022-10-03T16:19:52.453Z,5.60
2022-10-03T16:22:45.473Z,5.63
2022-10-03T16:25:25.562Z,6.20
2022-10-03T16:27:55.900Z,5.43
2022-10-03T16:30:28.346Z,5.00
2022-10-03T16:33:11.856Z,5.07
2022-10-03T16:35:44.538Z,5.70
2022-10-03T16:38:37.820Z,4.25
2022-10-03T16:41:12.720Z,5.32
2022-10-03T16:43:41.172Z,8.00
2022-10-03T16:46:21.574Z,6.07
2022-10-03T16:49:07.955Z,5.95
2022-10-03T16:51:45.386Z,6.50
2022-10-03T16:54:18.910Z,6.47
2022-10-03T16:56:56.410Z,5.68
2022-10-03T16:59:24.821Z,5.97
2022-10-03T17:01:59.975Z,6.43
2022-10-03T17:04:35.662Z,6.10
2022-10-03T17:07:18.724Z,7.00
2022-10-03T17:09:49.272Z,6.15
2022-10-03T17:12:23.073Z,6.32
2022-10-03T17:14:54.518Z,5.88
2022-10-03T17:17:33.338Z,5.50
2022-10-03T17:20:39.968Z,6.30
2022-10-03T17:23:14.936Z,5.00
2022-10-03T17:26:01.001Z,6.28
2022-10-03T17:28:54.564Z,6.72
2022-10-03T17:31:36.377Z,7.03
2022-10-03T17:34:15.395Z,7.45
2022-10-03T17:36:51.540Z,6.93
2022-10-03T17:39:49.673Z,7.10
2022-10-03T17:42:53.063Z,9.40
2022-10-03T17:45:44.803Z,8.65
2022-10-03T17:48:20.883Z,8.02
2022-10-03T17:51:02.665Z,8.75
2022-10-03T17:53:33.082Z,9.38
2022-10-03T17:56:20.386Z,8.20
2022-10-03T17:58:58.243Z,7.97
2022-10-03T18:01:35.421Z,8.43
2022-10-03T18:04:05.453Z,8.45
2022-10-03T18:06:39.060Z,8.77
2022-10-03T18:09:15.061Z,8.52
2022-10-03T18:11:44.005Z,8.23
2022-10-03T18:14:44.808Z,8.45
2022-10-03T18:17:47.304Z,7.70
2022-10-03T18:20:45.805Z,8.20
2022-10-03T18:23:49.976Z,8.13
2022-10-03T18:26:37.435Z,9.43
2022-10-03T18:29:23.590Z,8.43
2022-10-03T18:32:14.647Z,8.82
2022-10-03T18:34:47.853Z,9.02
2022-10-03T18:37:27.057Z,8.98
2022-10-03T18:39:56.552Z,8.57
2022-10-03T18:42:28.305Z,8.02
2022-10-03T18:45:00.546Z,8.43
2022-10-03T18:47:38.017Z,8.13
2022-10-03T18:50:26.499Z,8.75
2022-10-03T18:52:55.416Z,8.00
2022-10-03T18:55:37.711Z,8.15
2022-10-03T18:58:33.879Z,8.82
2022-10-03T19:01:42.812Z,9.50
2022-10-03T19:04:16.027Z,8.88
2022-10-03T19:06:48.204Z,9.50
2022-10-03T19:09:24.041Z,9.52
2022-10-03T19:12:03.445Z,9.50
2022-10-03T19:14:55.581Z,9.50
2022-10-03T19:17:36.464Z,9.15
2022-10-03T19:20:25.562Z,11.23
2022-10-03T19:23:30.909Z,10.45
2022-10-03T19:26:06.580Z,11.02
2022-10-03T19:28:44.634Z,11.10
2022-10-03T19:31:11.753Z,10.80
2022-10-03T19:33:45.069Z,13.07
2022-10-03T19:36:21.027Z,9.30
2022-10-03T19:38:48.995Z,10.00
2022-10-03T19:41:42.982Z,10.30
2022-10-03T19:44:24.384Z,9.30
2022-10-03T19:47:15.784Z,9.63
2022-10-03T19:50:01.859Z,10.80
2022-10-03T19:52:41.462Z,10.32
2022-10-03T19:55:20.859Z,10.02
2022-10-03T19:58:04.005Z,8.40
2022-10-03T20:00:37.073Z,8.57
2022-10-03T20:03:23.064Z,8.80
2022-10-03T20:06:11.055Z,8.00
2022-10-03T20:08:58.219Z,9.27
2022-10-03T20:11:49.064Z,7.57
2022-10-03T20:14:31.261Z,8.52
2022-10-03T20:17:02.336Z,7.60
2022-10-03T20:19:46.909Z,8.68
2022-10-03T20:22:15.021Z,8.43
2022-10-03T20:24:45.297Z,8.55
2022-10-03T20:27:34.056Z,9.63
2022-10-03T20:30:16.961Z,9.73
2022-10-03T20:32:46.409Z,9.70
2022-10-03T20:35:24.649Z,9.57
2022-10-03T20:38:10.616Z,9.40
2022-10-03T20:40:43.273Z,8.40
2022-10-03T20:43:43.297Z,10.90
2022-10-03T20:46:22.093Z,10.40
2022-10-03T20:49:10.912Z,8.93
2022-10-03T20:51:43.115Z,7.63
2022-10-03T20:54:16.682Z,9.93
2022-10-03T20:57:00.679Z,10.70
2022-10-03T20:59:39.116Z,10.07
